首页
METAR-TAF:

METAR-TAF

机场 :

Ingenika Point, 不列颠哥伦比亚, 加拿大

纬度: 56-48N, 经度: 124-54W, 海拔: 680米

METAR: 丢失

时间: 11:26 (18:26 UTC)

预报

该预报发布于26分钟前的18:00 UTC
预报有效从08日的 18点(UTC)到 09日的 18点(UTC)
风速6节,风向西转西南
能見度: 10公里
散云层高于2000英尺
多云层高于4000英尺
从 08日的 2200点(UTC)
风速9节,风向西南
能見度: 10公里
少量云层高于2000英尺
散云层高于4000英尺
从 09日的 0500点(UTC)
风速7节,风向西转西南
能見度: 10公里
散云层高于2000英尺
多云层高于4000英尺
从 09日的 1100点(UTC)
风速10节,风向南转西南,有时为18节阵风
能見度: 6.4公里
多云层高于1000英尺
阴天层高于2000英尺
小阵雨
从 09日的 1500点(UTC)
风速8节,风向南转南东
能見度: 9.7公里
散云层高于1000英尺
多云层高于2000英尺
阴天层高于3000英尺
小毛毛雨, 轻雾

TAF: CWWU 081800Z 0818/0918 25006KT P6SM SCT020 BKN040 FM082200 22009KT P6SM FEW020 SCT040 FM090500 24007KT P6SM SCT020 BKN040 FM091100 20010G18KT 4SM -SHRA BKN010 OVC020 FM091500 16008KT 6SM -DZ BR SCT010 BKN020 OVC030 RMK FCST BASED ON AUTO OBS. NXT FCST BY 090000Z

超过4000个机场的气象观测和天气预报(METAR&TAF报告)。

可查询的气象台以黄色和红色小点在地图上表示。

将鼠标移到小点上方,可查看气象台名称。

然后点击查看天气观测和预报。

如需切换地图:点击带黑十字的绿色按钮放大地图;点击带横线的绿色按钮缩小地图;或者点击绿色箭头查看邻近地区的地图。


METAR-TAF: